Time;durP1;ratioP1;P1;durP2;ratioP2;P2;SDS_P1;SDS_P2;PMS_P1;PMS_P2;Temp;Humidity;BMP_temperature;BMP_pressure;BME280_temperature;BME280_humidity;BME280_pressure;Samples;Min_cycle;Max_cycle;Signal;HPM_P1;HPM_P2
2023/01/02 00:00:25;;;;;;;9.53;7.47;;;7.60;99.90;;;;;;5014286;28;20183;-37
2023/01/02 00:02:51;;;;;;;12.83;8.40;;;7.60;99.90;;;;;;4997002;28;20226;-37
2023/01/02 00:05:17;;;;;;;11.20;7.80;;;7.60;99.90;;;;;;4996960;28;20211;-36
2023/01/02 00:07:42;;;;;;;11.40;7.47;;;7.60;99.90;;;;;;4980677;28;20221;-37
2023/01/02 00:10:09;;;;;;;11.93;7.20;;;7.60;99.90;;;;;;4980641;28;20182;-37
2023/01/02 00:12:35;;;;;;;10.63;7.53;;;7.60;99.90;;;;;;4997036;28;20211;-37
2023/01/02 00:15:01;;;;;;;10.80;7.77;;;7.70;99.90;;;;;;4980401;28;20309;-39
2023/01/02 00:17:28;;;;;;;11.40;7.80;;;7.70;99.90;;;;;;4980664;28;20225;-38
2023/01/02 00:19:55;;;;;;;10.47;6.60;;;7.80;99.90;;;;;;4980384;28;20237;-37
2023/01/02 00:22:21;;;;;;;10.23;6.53;;;7.80;99.90;;;;;;4980470;28;20211;-37
2023/01/02 00:24:47;;;;;;;12.63;7.30;;;7.70;99.90;;;;;;4996722;28;20191;-37
2023/01/02 00:27:13;;;;;;;9.97;7.20;;;7.70;99.90;;;;;;5014175;28;20186;-38
2023/01/02 00:29:40;;;;;;;9.27;6.93;;;7.70;99.90;;;;;;4996181;28;20250;-37
2023/01/02 00:32:06;;;;;;;8.73;6.57;;;7.70;99.90;;;;;;4980350;28;20809;-37
2023/01/02 00:34:31;;;;;;;12.90;6.90;;;7.70;99.90;;;;;;4996800;28;20187;-39
2023/01/02 00:36:57;;;;;;;9.10;6.57;;;7.70;99.90;;;;;;5014306;28;20175;-37
2023/01/02 00:39:23;;;;;;;9.67;6.20;;;7.60;99.90;;;;;;4996370;28;20191;-37
2023/01/02 00:41:49;;;;;;;11.23;7.03;;;7.60;99.90;;;;;;4996015;28;20218;-37
2023/01/02 00:44:14;;;;;;;10.97;6.57;;;7.40;99.90;;;;;;5005633;28;20536;-37
2023/01/02 00:46:40;;;;;;;11.80;6.47;;;7.40;99.90;;;;;;4996314;28;20273;-37
2023/01/02 00:49:06;;;;;;;9.07;6.40;;;7.40;99.90;;;;;;4996009;28;20210;-37
2023/01/02 00:51:31;;;;;;;8.47;6.17;;;7.40;99.90;;;;;;4979927;28;20274;-37
2023/01/02 00:53:57;;;;;;;7.23;5.50;;;7.40;99.90;;;;;;4996086;28;20182;-37
2023/01/02 00:56:23;;;;;;;9.40;6.10;;;7.40;99.90;;;;;;4995903;28;20187;-36
2023/01/02 00:58:49;;;;;;;8.70;5.57;;;7.40;99.90;;;;;;4979275;28;20191;-37
2023/01/02 01:01:15;;;;;;;7.70;5.20;;;7.40;99.90;;;;;;4995538;28;20187;-37
2023/01/02 01:03:42;;;;;;;8.33;5.70;;;7.40;99.90;;;;;;4979786;28;20224;-38
2023/01/02 01:06:09;;;;;;;9.07;6.13;;;7.40;99.90;;;;;;4979821;28;20230;-37
2023/01/02 01:08:37;;;;;;;8.83;6.23;;;7.30;99.90;;;;;;5013553;28;20175;-39
2023/01/02 01:11:14;;;;;;;11.57;6.27;;;7.30;99.90;;;;;;5013421;28;20186;-38
2023/01/02 01:13:41;;;;;;;6.80;5.47;;;7.20;99.90;;;;;;4979508;28;20197;-38
2023/01/02 01:16:15;;;;;;;8.90;6.20;;;7.20;99.90;;;;;;4979424;28;20210;-37
2023/01/02 01:18:41;;;;;;;10.60;6.17;;;7.20;99.90;;;;;;4995025;28;20237;-37
2023/01/02 01:21:18;;;;;;;7.00;5.60;;;7.10;99.90;;;;;;5013078;28;20306;-37
2023/01/02 01:23:49;;;;;;;10.17;6.10;;;7.10;99.90;;;;;;4995507;28;20218;-37
2023/01/02 01:26:15;;;;;;;9.17;5.87;;;7.10;99.90;;;;;;4979391;28;20213;-37
2023/01/02 01:28:40;;;;;;;10.77;5.80;;;7.10;99.90;;;;;;5012677;28;20211;-38
2023/01/02 01:31:09;;;;;;;10.27;7.37;;;7.00;99.90;;;;;;5012630;28;20233;-37
2023/01/02 01:33:35;;;;;;;10.93;6.40;;;6.90;99.90;;;;;;5012802;28;20189;-37
2023/01/02 01:36:03;;;;;;;8.43;6.20;;;6.90;99.90;;;;;;5012830;28;20198;-38
2023/01/02 01:38:30;;;;;;;10.27;6.53;;;6.80;99.90;;;;;;5013083;28;20191;-37
2023/01/02 01:40:56;;;;;;;8.93;5.97;;;6.70;99.90;;;;;;4979154;28;20175;-37
2023/01/02 01:43:37;;;;;;;8.00;5.60;;;6.70;99.90;;;;;;4994618;28;20226;-37
2023/01/02 01:46:06;;;;;;;8.13;4.87;;;6.70;99.90;;;;;;5012482;28;20340;-37
2023/01/02 01:48:32;;;;;;;7.50;4.40;;;6.80;99.90;;;;;;4995008;28;20183;-36
2023/01/02 01:50:58;;;;;;;10.37;4.87;;;7.00;99.90;;;;;;4978918;28;20179;-36
2023/01/02 01:53:24;;;;;;;6.83;4.33;;;7.20;99.90;;;;;;5012379;28;20211;-38
2023/01/02 01:55:55;;;;;;;6.13;4.13;;;7.30;99.90;;;;;;4978783;28;20187;-37
2023/01/02 01:58:54;;;;;;;8.90;4.40;;;7.50;99.90;;;;;;5012429;28;20201;-37
2023/01/02 02:01:20;;;;;;;6.10;3.70;;;7.70;99.90;;;;;;4937144;28;20195;-38
2023/01/02 02:03:48;;;;;;;7.03;3.77;;;7.80;99.90;;;;;;4994072;28;20257;-37
2023/01/02 02:06:16;;;;;;;5.60;3.50;;;8.00;99.90;;;;;;4994786;28;20194;-37
2023/01/02 02:08:56;;;;;;;8.60;3.80;;;8.10;99.90;;;;;;5011739;28;20274;-37
2023/01/02 02:11:22;;;;;;;9.50;3.43;;;8.20;99.90;;;;;;5012510;28;20193;-37
2023/01/02 02:13:49;;;;;;;4.20;3.40;;;8.20;99.90;;;;;;4994860;28;20179;-37
2023/01/02 02:16:15;;;;;;;3.57;3.10;;;8.20;99.90;;;;;;4994531;28;20182;-37
2023/01/02 02:19:17;;;;;;;6.03;4.17;;;8.10;99.90;;;;;;4978181;28;20179;-37
2023/01/02 02:22:04;;;;;;;5.97;3.80;;;8.00;99.90;;;;;;4994304;28;20206;-37
2023/01/02 02:24:59;;;;;;;8.13;4.10;;;7.90;99.90;;;;;;4994443;28;20171;-37
2023/01/02 02:27:49;;;;;;;7.40;4.10;;;7.80;99.90;;;;;;5011337;28;20211;-38
2023/01/02 02:30:18;;;;;;;7.90;5.17;;;7.80;99.90;;;;;;4985967;28;20187;-37
2023/01/02 02:32:47;;;;;;;11.83;6.83;;;7.70;99.90;;;;;;4996709;28;20203;-37
2023/01/02 02:35:34;;;;;;;10.07;6.97;;;7.60;99.90;;;;;;4993843;28;20191;-37
2023/01/02 02:38:07;;;;;;;11.77;7.00;;;7.60;99.90;;;;;;4992435;28;20279;-38
2023/01/02 02:40:46;;;;;;;10.60;6.50;;;7.50;99.90;;;;;;4974886;28;20278;-37
2023/01/02 02:43:34;;;;;;;11.47;7.13;;;7.40;99.90;;;;;;4975136;28;20216;-37
2023/01/02 02:46:06;;;;;;;8.70;6.23;;;7.30;99.90;;;;;;4958307;28;20176;-36
2023/01/02 02:48:56;;;;;;;11.37;7.13;;;7.30;99.90;;;;;;5007236;28;20195;-37
2023/01/02 02:51:36;;;;;;;13.57;8.00;;;7.20;99.90;;;;;;4991794;28;20184;-36
2023/01/02 02:54:12;;;;;;;11.77;8.17;;;7.20;99.90;;;;;;4974627;28;20652;-36
2023/01/02 02:56:41;;;;;;;15.97;8.70;;;7.20;99.90;;;;;;4992729;28;20203;-37
2023/01/02 02:59:07;;;;;;;14.80;9.00;;;7.10;99.90;;;;;;4985563;28;20245;-36
2023/01/02 03:01:35;;;;;;;15.23;10.00;;;7.10;99.90;;;;;;5011067;28;20203;-37
2023/01/02 03:04:01;;;;;;;16.77;10.40;;;7.00;99.90;;;;;;4977843;28;20205;-36
2023/01/02 03:07:22;;;;;;;16.73;10.33;;;7.00;99.90;;;;;;4994295;28;20179;-39
2023/01/02 03:10:00;;;;;;;14.40;10.40;;;7.00;99.90;;;;;;4915219;29;20349;-38
2023/01/02 03:12:50;;;;;;;16.67;9.87;;;6.90;99.90;;;;;;4994097;28;20214;-39
2023/01/02 03:15:32;;;;;;;14.83;8.87;;;6.90;99.90;;;;;;4976814;28;20250;-39
2023/01/02 03:18:22;;;;;;;8.73;5.47;;;6.90;99.90;;;;;;5011877;28;20536;-40
2023/01/02 03:21:13;;;;;;;7.27;4.00;;;6.90;99.90;;;;;;4978227;28;20186;-39
2023/01/02 03:23:48;;;;;;;8.77;3.70;;;7.00;99.90;;;;;;4977380;28;20261;-39
2023/01/02 03:26:19;;;;;;;4.97;3.53;;;7.10;99.90;;;;;;4977409;28;20175;-39
2023/01/02 03:28:49;;;;;;;5.63;3.30;;;7.20;99.90;;;;;;4974186;28;20188;-39
2023/01/02 03:31:18;;;;;;;4.60;3.27;;;7.30;99.90;;;;;;5007126;28;20187;-39
2023/01/02 03:33:53;;;;;;;9.93;5.83;;;7.30;99.90;;;;;;4993795;28;20263;-40
2023/01/02 03:36:23;;;;;;;9.43;5.23;;;7.30;99.90;;;;;;5010962;28;20185;-39
2023/01/02 03:39:15;;;;;;;7.80;5.53;;;7.20;99.90;;;;;;4993964;28;20190;-40
2023/01/02 03:41:56;;;;;;;8.60;5.37;;;7.20;99.90;;;;;;5011671;28;20238;-38
2023/01/02 03:44:28;;;;;;;7.97;5.67;;;7.10;99.90;;;;;;4993832;28;20179;-38
2023/01/02 03:47:25;;;;;;;10.07;6.83;;;7.00;99.90;;;;;;4993638;28;20187;-41
2023/01/02 03:49:55;;;;;;;10.53;7.53;;;7.00;99.90;;;;;;5011344;28;20171;-44
2023/01/02 03:52:22;;;;;;;11.10;7.33;;;6.90;99.90;;;;;;4994281;28;20213;-39
2023/01/02 03:54:48;;;;;;;11.43;7.60;;;6.90;99.90;;;;;;4977353;28;20333;-39
2023/01/02 03:57:43;;;;;;;14.40;8.73;;;6.80;99.90;;;;;;5010917;28;20246;-42
2023/01/02 04:00:10;;;;;;;11.97;8.23;;;6.80;99.90;;;;;;4997196;28;20175;-40
2023/01/02 04:03:11;;;;;;;10.63;7.63;;;6.80;99.90;;;;;;4994247;28;20214;-39
2023/01/02 04:05:57;;;;;;;13.27;7.90;;;6.70;99.90;;;;;;4978796;28;20178;-40
2023/01/02 04:08:30;;;;;;;12.23;7.63;;;6.80;99.90;;;;;;4993834;28;20175;-38
2023/01/02 04:10:58;;;;;;;8.17;6.20;;;6.80;99.90;;;;;;4993886;28;20175;-39
2023/01/02 04:13:49;;;;;;;7.87;4.33;;;6.70;99.90;;;;;;4993289;28;20290;-39
2023/01/02 04:16:20;;;;;;;6.20;3.63;;;6.90;99.90;;;;;;5011236;28;20239;-39
2023/01/02 04:18:53;;;;;;;9.00;4.53;;;7.00;99.90;;;;;;4976986;28;20249;-39
2023/01/02 04:21:25;;;;;;;7.97;4.77;;;7.10;99.90;;;;;;4993464;28;20637;-39
2023/01/02 04:23:57;;;;;;;9.47;6.37;;;7.10;99.90;;;;;;4993624;28;20222;-39
2023/01/02 04:26:34;;;;;;;8.67;6.17;;;7.00;99.90;;;;;;4977884;28;20180;-38
2023/01/02 04:29:00;;;;;;;9.50;6.33;;;7.00;99.90;;;;;;4987703;28;20210;-38
2023/01/02 04:31:28;;;;;;;9.20;6.23;;;6.90;99.90;;;;;;4983109;28;20186;-38
2023/01/02 04:33:58;;;;;;;10.93;6.63;;;6.80;99.90;;;;;;4998352;28;20186;-38
2023/01/02 04:36:24;;;;;;;14.03;6.87;;;6.80;99.90;;;;;;4996917;28;20186;-39
2023/01/02 04:38:50;;;;;;;11.07;6.90;;;6.70;99.90;;;;;;4979990;28;20189;-38
2023/01/02 04:41:26;;;;;;;11.60;7.03;;;6.70;99.90;;;;;;4980131;28;20185;-37
2023/01/02 04:43:53;;;;;;;10.80;8.00;;;6.70;99.90;;;;;;5015391;28;20205;-36
2023/01/02 04:46:19;;;;;;;10.43;7.63;;;6.60;99.90;;;;;;5013895;28;20182;-36
2023/01/02 04:48:45;;;;;;;9.97;7.10;;;6.60;99.90;;;;;;4996647;28;20694;-36
2023/01/02 04:51:11;;;;;;;9.83;6.60;;;6.60;99.90;;;;;;4996438;28;20250;-37
2023/01/02 04:53:37;;;;;;;8.03;5.97;;;6.60;99.90;;;;;;5014609;28;20269;-39
2023/01/02 04:56:03;;;;;;;9.67;6.57;;;6.50;99.90;;;;;;5015923;28;20178;-36
2023/01/02 04:58:29;;;;;;;8.37;6.27;;;6.50;99.90;;;;;;4988221;28;20194;-40
2023/01/02 05:00:54;;;;;;;8.50;6.17;;;6.50;99.90;;;;;;4979844;28;20228;-38
2023/01/02 05:03:21;;;;;;;8.00;6.33;;;6.50;99.90;;;;;;4996994;28;20211;-38
2023/01/02 05:05:47;;;;;;;7.57;5.70;;;6.50;99.90;;;;;;4980431;28;20186;-39
2023/01/02 05:08:13;;;;;;;8.43;5.43;;;6.50;99.90;;;;;;4997106;28;20179;-36
2023/01/02 05:10:40;;;;;;;9.30;6.00;;;6.50;99.90;;;;;;4995905;28;20187;-39
2023/01/02 05:13:05;;;;;;;8.00;5.03;;;6.50;99.90;;;;;;4996519;28;20624;-38
2023/01/02 05:15:31;;;;;;;11.73;6.00;;;6.40;99.90;;;;;;4996389;28;20655;-39
2023/01/02 05:17:57;;;;;;;9.47;5.23;;;6.40;99.90;;;;;;4998677;28;20183;-39
2023/01/02 05:20:25;;;;;;;7.80;5.13;;;6.40;99.90;;;;;;4980115;28;20182;-36
2023/01/02 05:25:35;;;;;;;6.13;4.20;;;6.40;99.90;;;;;;4996373;28;20191;-36
2023/01/02 05:28:02;;;;;;;8.07;4.57;;;6.50;99.90;;;;;;4981035;28;20181;-37
2023/01/02 05:30:28;;;;;;;6.00;4.60;;;6.50;99.90;;;;;;4979360;28;20179;-37
2023/01/02 05:32:54;;;;;;;7.00;4.37;;;6.50;99.90;;;;;;4979943;28;20208;-39
2023/01/02 05:35:20;;;;;;;6.33;4.30;;;6.50;99.90;;;;;;4995753;28;20187;-39
2023/01/02 05:37:46;;;;;;;5.43;3.93;;;6.50;99.90;;;;;;4995323;28;20182;-37
2023/01/02 05:40:12;;;;;;;7.40;4.17;;;6.40;99.90;;;;;;4978059;28;20190;-38
2023/01/02 05:42:38;;;;;;;6.90;3.33;;;6.40;99.90;;;;;;4979977;28;20222;-38
2023/01/02 05:45:04;;;;;;;6.10;3.43;;;6.50;99.90;;;;;;4995460;28;20196;-37
2023/01/02 05:47:30;;;;;;;10.00;3.10;;;6.70;99.90;;;;;;5012597;28;20202;-37
2023/01/02 05:49:56;;;;;;;7.20;3.30;;;6.90;99.90;;;;;;4995458;28;20720;-37
2023/01/02 05:52:21;;;;;;;4.30;3.07;;;7.10;99.90;;;;;;4978562;28;20222;-37
2023/01/02 05:54:47;;;;;;;4.97;2.87;;;7.30;99.90;;;;;;4979917;28;20193;-38
2023/01/02 05:57:13;;;;;;;5.43;2.60;;;7.40;99.90;;;;;;4994984;28;20183;-37
2023/01/02 05:59:39;;;;;;;6.90;2.87;;;7.50;99.90;;;;;;4994534;28;20184;-38
2023/01/02 06:02:04;;;;;;;6.20;3.00;;;7.60;99.90;;;;;;4979467;28;20248;-38
2023/01/02 06:04:30;;;;;;;6.40;3.43;;;7.60;99.90;;;;;;4996521;28;20238;-37
2023/01/02 06:06:56;;;;;;;5.10;3.40;;;7.60;99.90;;;;;;5012617;28;20175;-39
2023/01/02 06:09:21;;;;;;;8.00;3.00;;;7.60;99.90;;;;;;4994708;28;20181;-39
2023/01/02 06:11:47;;;;;;;6.17;3.37;;;7.50;99.90;;;;;;4978597;28;20259;-39
2023/01/02 06:14:13;;;;;;;5.50;3.40;;;7.40;99.90;;;;;;5012172;28;20195;-38
2023/01/02 06:16:39;;;;;;;5.03;3.10;;;7.30;99.90;;;;;;4994457;28;20230;-39
2023/01/02 06:19:05;;;;;;;6.10;2.93;;;7.20;99.90;;;;;;4979246;28;20190;-38
2023/01/02 06:21:32;;;;;;;4.17;3.20;;;7.10;99.90;;;;;;4978346;28;20207;-39
2023/01/02 06:23:58;;;;;;;6.83;3.30;;;7.30;99.90;;;;;;4994529;28;20215;-39
2023/01/02 06:26:26;;;;;;;7.00;2.80;;;7.20;99.90;;;;;;4994753;28;20194;-39
2023/01/02 06:28:54;;;;;;;5.70;3.43;;;7.20;99.90;;;;;;4993750;28;20186;-40
2023/01/02 06:31:22;;;;;;;10.40;5.60;;;7.00;99.90;;;;;;4977952;28;20285;-39
2023/01/02 06:33:53;;;;;;;9.10;5.80;;;6.90;99.90;;;;;;5011961;28;20187;-39
2023/01/02 06:36:19;;;;;;;10.57;5.83;;;6.80;99.90;;;;;;4978126;28;20182;-41
2023/01/02 06:38:45;;;;;;;9.97;6.37;;;6.70;99.90;;;;;;5011636;28;20196;-39
2023/01/02 06:41:12;;;;;;;8.20;5.80;;;6.50;99.90;;;;;;4977694;28;20210;-40
2023/01/02 06:43:48;;;;;;;9.77;5.67;;;6.40;99.90;;;;;;4994022;28;20221;-39
2023/01/02 06:46:17;;;;;;;11.70;6.57;;;6.30;99.90;;;;;;4994285;28;20195;-41
2023/01/02 06:48:43;;;;;;;9.80;5.90;;;6.30;99.90;;;;;;4978178;28;20183;-44
2023/01/02 06:51:12;;;;;;;7.47;5.77;;;6.30;99.90;;;;;;4977466;28;20205;-40
2023/01/02 06:53:39;;;;;;;6.73;4.60;;;6.30;99.90;;;;;;4994883;28;20193;-41
2023/01/02 06:56:06;;;;;;;5.43;3.23;;;6.40;99.90;;;;;;4993897;28;20201;-39
2023/01/02 06:58:33;;;;;;;8.77;3.57;;;6.50;99.90;;;;;;4977574;28;20198;-39
2023/01/02 07:01:08;;;;;;;5.60;3.57;;;6.60;99.90;;;;;;5007432;28;20180;-39
2023/01/02 07:03:34;;;;;;;5.87;3.07;;;6.70;99.90;;;;;;5013485;28;20247;-39
2023/01/02 07:06:08;;;;;;;7.43;2.87;;;6.70;99.90;;;;;;4997070;28;20174;-39
2023/01/02 07:08:34;;;;;;;7.80;3.23;;;6.70;99.90;;;;;;5013350;28;20184;-39
2023/01/02 07:11:19;;;;;;;9.53;3.07;;;6.80;99.90;;;;;;5013237;28;20186;-38
2023/01/02 07:13:47;;;;;;;5.63;3.33;;;6.90;99.90;;;;;;5031173;28;20377;-39
2023/01/02 07:16:15;;;;;;;4.53;3.00;;;7.10;99.90;;;;;;5013224;28;20182;-39
2023/01/02 07:18:41;;;;;;;7.80;3.37;;;7.20;99.90;;;;;;5013267;28;20186;-39
2023/01/02 07:21:08;;;;;;;8.87;3.70;;;7.20;99.90;;;;;;5030518;28;20209;-38
2023/01/02 07:23:34;;;;;;;5.80;3.20;;;7.20;99.90;;;;;;5013715;28;20206;-39
2023/01/02 07:26:03;;;;;;;5.13;2.83;;;7.20;99.90;;;;;;5030823;28;20170;-40
2023/01/02 07:28:29;;;;;;;4.97;3.20;;;7.30;99.90;;;;;;5016396;28;20179;-39
2023/01/02 07:31:03;;;;;;;8.37;3.60;;;7.30;99.90;;;;;;5011608;28;20183;-39
2023/01/02 07:33:30;;;;;;;9.03;3.97;;;7.30;99.90;;;;;;4994324;28;20221;-41
2023/01/02 07:36:00;;;;;;;38.20;9.40;;;7.40;99.90;;;;;;4993197;28;20187;-39
2023/01/02 07:38:26;;;;;;;23.87;6.63;;;7.50;99.90;;;;;;4977264;28;20212;-39
2023/01/02 07:40:51;;;;;;;31.97;7.60;;;7.60;99.90;;;;;;4993497;28;20674;-40
2023/01/02 07:43:18;;;;;;;16.37;5.07;;;7.70;99.90;;;;;;5010796;28;20222;-41
2023/01/02 07:45:44;;;;;;;9.87;3.90;;;7.80;99.90;;;;;;4993174;28;20187;-40
2023/01/02 07:48:09;;;;;;;6.27;3.63;;;7.80;99.90;;;;;;4977754;28;20182;-39
2023/01/02 07:50:35;;;;;;;5.50;3.53;;;7.80;99.90;;;;;;4976808;28;20190;-39
2023/01/02 07:53:01;;;;;;;8.77;3.73;;;7.80;99.90;;;;;;4993617;28;20298;-39
2023/01/02 07:55:27;;;;;;;6.77;3.53;;;7.90;99.90;;;;;;4993778;28;20295;-39
2023/01/02 07:57:53;;;;;;;6.53;3.53;;;7.90;99.90;;;;;;4977914;28;20190;-42
2023/01/02 08:00:19;;;;;;;6.50;3.00;;;7.90;99.90;;;;;;5010854;28;20270;-43
2023/01/02 08:02:45;;;;;;;5.47;2.83;;;7.90;99.90;;;;;;4978230;28;20265;-39
2023/01/02 08:05:11;;;;;;;8.77;2.70;;;7.90;99.90;;;;;;5015917;28;20194;-39
2023/01/02 08:07:37;;;;;;;9.10;3.67;;;7.80;99.90;;;;;;4980791;28;20176;-39
2023/01/02 08:10:03;;;;;;;7.07;2.97;;;7.90;99.90;;;;;;5015042;28;20167;-39
2023/01/02 08:12:29;;;;;;;4.63;3.20;;;8.00;99.90;;;;;;4980936;28;20199;-38
2023/01/02 08:14:54;;;;;;;8.73;2.93;;;8.20;99.90;;;;;;4997375;28;20186;-39
2023/01/02 08:17:20;;;;;;;6.10;3.20;;;8.20;99.90;;;;;;4981605;28;20647;-40
2023/01/02 08:19:46;;;;;;;5.77;3.47;;;8.30;99.90;;;;;;4997116;28;20179;-39
2023/01/02 08:22:12;;;;;;;7.30;3.27;;;8.40;99.90;;;;;;4997190;28;20214;-36
2023/01/02 08:24:37;;;;;;;4.40;2.83;;;8.50;99.90;;;;;;4980648;28;20183;-36
2023/01/02 08:27:03;;;;;;;5.37;3.30;;;8.50;99.90;;;;;;4980554;28;20187;-38
2023/01/02 08:29:29;;;;;;;5.60;3.03;;;8.50;99.90;;;;;;4980249;28;20175;-39
2023/01/02 08:31:58;;;;;;;7.30;2.87;;;8.50;99.90;;;;;;4995006;28;20195;-40
2023/01/02 08:34:24;;;;;;;4.40;2.17;;;8.60;99.90;;;;;;4989042;28;20191;-38
2023/01/02 08:36:51;;;;;;;6.17;2.80;;;8.70;99.90;;;;;;5008293;28;20244;-39
2023/01/02 08:39:16;;;;;;;4.33;2.53;;;8.70;99.90;;;;;;5008099;28;20182;-39
2023/01/02 08:41:42;;;;;;;4.20;2.60;;;8.70;99.90;;;;;;5000774;28;20221;-39
2023/01/02 08:44:08;;;;;;;5.53;2.77;;;8.70;99.90;;;;;;4999812;28;20214;-39
2023/01/02 08:46:35;;;;;;;5.30;2.77;;;8.70;99.90;;;;;;5016289;28;20198;-39
2023/01/02 08:49:00;;;;;;;5.83;2.73;;;8.70;99.90;;;;;;4998788;28;20214;-40
2023/01/02 08:51:27;;;;;;;5.73;3.30;;;8.70;99.90;;;;;;5034095;28;20206;-39
2023/01/02 08:53:53;;;;;;;6.33;3.90;;;8.70;99.90;;;;;;5016378;28;20183;-40
2023/01/02 08:56:25;;;;;;;6.13;3.37;;;8.60;99.90;;;;;;5015934;28;20190;-39
2023/01/02 08:58:57;;;;;;;4.47;2.83;;;8.60;99.90;;;;;;5015877;28;20182;-39
2023/01/02 09:01:24;;;;;;;4.47;3.10;;;8.70;99.90;;;;;;4998174;28;20250;-39
2023/01/02 09:03:51;;;;;;;6.27;3.40;;;8.80;99.90;;;;;;4996314;28;20313;-42
2023/01/02 09:06:18;;;;;;;10.10;3.37;;;8.80;99.90;;;;;;4979943;28;20183;-39
2023/01/02 09:08:44;;;;;;;9.83;3.53;;;8.80;99.90;;;;;;4995896;28;20182;-40
2023/01/02 09:11:16;;;;;;;6.37;3.10;;;8.80;99.90;;;;;;4995732;28;20175;-41
2023/01/02 09:13:43;;;;;;;6.67;2.83;;;8.90;99.90;;;;;;4994527;28;20175;-39
2023/01/02 09:16:09;;;;;;;6.93;2.83;;;8.90;99.90;;;;;;4995566;28;20188;-39
2023/01/02 09:18:37;;;;;;;5.83;3.20;;;9.00;99.90;;;;;;4995782;28;20198;-40
2023/01/02 09:21:03;;;;;;;3.93;2.67;;;9.00;99.90;;;;;;4979764;28;20187;-39
2023/01/02 09:23:30;;;;;;;4.70;2.53;;;9.00;99.90;;;;;;4979226;28;20207;-39
2023/01/02 09:26:00;;;;;;;5.73;3.03;;;9.00;99.90;;;;;;4979731;28;20205;-39
2023/01/02 09:28:27;;;;;;;5.90;3.43;;;9.00;99.90;;;;;;4995883;28;20238;-38
2023/01/02 09:30:53;;;;;;;7.97;3.30;;;9.00;99.90;;;;;;4995420;28;20172;-39
2023/01/02 09:33:19;;;;;;;6.37;3.43;;;9.00;99.90;;;;;;4995240;28;20238;-39
2023/01/02 09:35:45;;;;;;;8.33;3.20;;;9.10;99.90;;;;;;4996115;28;20714;-39
2023/01/02 09:38:11;;;;;;;5.73;3.00;;;9.10;99.90;;;;;;4995928;28;20179;-39
2023/01/02 09:40:44;;;;;;;6.77;3.10;;;9.20;99.90;;;;;;4995299;28;20175;-39
2023/01/02 09:43:11;;;;;;;3.93;2.57;;;9.20;99.90;;;;;;4994717;28;20218;-39
2023/01/02 09:45:42;;;;;;;4.93;2.73;;;9.20;99.90;;;;;;4995262;28;20203;-39
2023/01/02 09:48:15;;;;;;;7.83;3.10;;;9.30;99.90;;;;;;5012821;28;20175;-37
2023/01/02 09:50:40;;;;;;;7.37;3.30;;;9.30;99.90;;;;;;4978896;28;20183;-37
2023/01/02 09:53:09;;;;;;;4.03;2.87;;;9.30;99.90;;;;;;4978340;28;20269;-37
2023/01/02 09:55:47;;;;;;;7.30;2.70;;;9.40;99.90;;;;;;4994904;28;20190;-37
2023/01/02 09:58:44;;;;;;;10.37;4.33;;;9.40;99.90;;;;;;4978848;28;20191;-37
2023/01/02 10:01:20;;;;;;;4.90;3.33;;;9.50;99.90;;;;;;4994928;28;20222;-37
2023/01/02 10:04:04;;;;;;;6.93;3.50;;;9.50;99.90;;;;;;5004370;28;20206;-38
2023/01/02 10:07:05;;;;;;;5.10;2.97;;;9.60;99.90;;;;;;5012908;28;20180;-37
2023/01/02 10:09:40;;;;;;;6.43;3.20;;;9.70;99.90;;;;;;4972501;28;20257;-38
2023/01/02 10:12:34;;;;;;;10.60;3.27;;;9.80;99.90;;;;;;5012652;28;20199;-37
2023/01/02 10:15:06;;;;;;;7.63;3.27;;;9.90;99.90;;;;;;4995047;28;20179;-38
2023/01/02 10:17:42;;;;;;;7.37;3.70;;;10.00;99.90;;;;;;4995221;28;20274;-39
2023/01/02 10:20:24;;;;;;;5.70;2.93;;;10.10;99.90;;;;;;4978345;28;20205;-37
2023/01/02 10:23:00;;;;;;;6.37;2.93;;;10.20;99.90;;;;;;4994183;28;20302;-37
2023/01/02 10:25:50;;;;;;;4.60;2.93;;;10.30;99.90;;;;;;4977796;28;20189;-37
2023/01/02 10:28:56;;;;;;;8.03;2.83;;;10.40;99.90;;;;;;4995364;28;20191;-38
2023/01/02 10:31:38;;;;;;;6.83;3.03;;;10.40;99.90;;;;;;4912793;29;20195;-37
2023/01/02 10:34:10;;;;;;;6.57;3.23;;;10.50;99.90;;;;;;4972098;28;20195;-37
2023/01/02 10:36:41;;;;;;;7.27;3.53;;;10.50;99.90;;;;;;4978033;28;20259;-38
2023/01/02 10:39:14;;;;;;;5.60;2.93;;;10.50;99.90;;;;;;4995236;28;20178;-38
2023/01/02 10:41:41;;;;;;;5.53;3.10;;;10.60;99.90;;;;;;4978542;28;20204;-38
2023/01/02 10:44:25;;;;;;;6.00;2.93;;;10.70;99.90;;;;;;5012015;28;20215;-37
2023/01/02 10:46:51;;;;;;;6.37;3.73;;;10.70;99.90;;;;;;4993973;28;20189;-38
2023/01/02 10:49:18;;;;;;;5.67;3.80;;;10.70;99.90;;;;;;4977766;28;20184;-37
2023/01/02 10:51:51;;;;;;;7.87;3.80;;;10.70;99.90;;;;;;5012008;28;20731;-37
2023/01/02 10:54:17;;;;;;;9.50;3.60;;;10.80;99.90;;;;;;4978106;28;20189;-37
2023/01/02 10:56:50;;;;;;;9.17;3.10;;;10.80;99.90;;;;;;4978493;28;20184;-38
2023/01/02 10:59:25;;;;;;;6.03;3.87;;;10.90;99.90;;;;;;4994142;28;20190;-37
2023/01/02 11:01:56;;;;;;;5.83;3.40;;;10.90;99.90;;;;;;4994514;28;20212;-37
2023/01/02 11:04:28;;;;;;;5.93;3.10;;;11.00;99.90;;;;;;4994437;28;20192;-37
2023/01/02 11:07:00;;;;;;;9.97;3.40;;;11.10;99.90;;;;;;5011391;28;20205;-37
2023/01/02 11:09:27;;;;;;;6.60;3.23;;;11.20;99.90;;;;;;4993243;28;20185;-41
2023/01/02 11:12:17;;;;;;;5.17;3.00;;;11.30;99.90;;;;;;4993160;28;20262;-40
2023/01/02 11:14:43;;;;;;;6.60;3.37;;;11.30;99.90;;;;;;5011717;28;20197;-41
2023/01/02 11:17:22;;;;;;;6.90;3.60;;;11.40;99.90;;;;;;4978236;28;20273;-40
2023/01/02 11:19:55;;;;;;;8.17;3.90;;;11.40;99.90;;;;;;4993719;28;20226;-39
2023/01/02 11:22:34;;;;;;;5.20;4.37;;;11.50;99.90;;;;;;4993585;28;20214;-40
2023/01/02 11:25:04;;;;;;;9.33;4.90;;;11.60;99.90;;;;;;4994640;28;20267;-40
2023/01/02 11:27:43;;;;;;;5.67;3.87;;;11.70;99.90;;;;;;4977341;28;20182;-39
2023/01/02 11:30:33;;;;;;;6.43;3.93;;;11.80;99.90;;;;;;5012539;28;20234;-39
2023/01/02 11:33:16;;;;;;;6.37;3.37;;;11.90;99.90;;;;;;4993909;28;20202;-39
2023/01/02 11:35:49;;;;;;;8.40;3.57;;;12.00;99.90;;;;;;4977301;28;20194;-38
2023/01/02 11:38:21;;;;;;;7.33;4.40;;;12.20;99.90;;;;;;4992514;28;20237;-37
2023/01/02 11:40:51;;;;;;;9.63;4.50;;;12.30;99.90;;;;;;5010701;28;20178;-37
2023/01/02 11:46:13;;;;;;;8.43;4.90;;;12.60;99.90;;;;;;5011097;28;20187;-37
2023/01/02 11:48:39;;;;;;;8.03;5.50;;;12.70;99.90;;;;;;4994259;28;20229;-36
2023/01/02 11:51:17;;;;;;;9.80;4.53;;;12.70;99.90;;;;;;4977051;28;20183;-37
2023/01/02 11:53:46;;;;;;;9.80;5.03;;;12.80;99.90;;;;;;5011477;28;20179;-37
2023/01/02 11:56:21;;;;;;;7.50;4.83;;;12.80;99.90;;;;;;5011774;28;20194;-37
2023/01/02 11:58:54;;;;;;;7.60;4.70;;;12.80;99.90;;;;;;4977904;28;20197;-39
2023/01/02 12:01:24;;;;;;;9.50;6.97;;;12.80;99.90;;;;;;4977585;28;20187;-37
2023/01/02 12:03:50;;;;;;;14.70;6.90;;;12.90;99.90;;;;;;4993584;28;20230;-38
2023/01/02 12:06:20;;;;;;;10.60;6.60;;;12.90;99.90;;;;;;4977779;28;20226;-37
2023/01/02 12:08:57;;;;;;;12.40;5.67;;;13.10;99.90;;;;;;4993160;28;20194;-37
2023/01/02 12:11:35;;;;;;;4.70;1.90;;;13.40;99.90;;;;;;5011082;28;20242;-38
2023/01/02 12:14:13;;;;;;;6.97;2.20;;;13.70;99.90;;;;;;4992999;28;20194;-38
2023/01/02 12:16:56;;;;;;;6.87;2.30;;;13.90;99.90;;;;;;4992993;28;20179;-38
2023/01/02 12:19:39;;;;;;;11.73;3.90;;;14.20;99.90;;;;;;4993378;28;20202;-37
2023/01/02 12:22:11;;;;;;;9.07;2.83;;;14.50;99.90;;;;;;4993471;28;20229;-41
2023/01/02 12:24:51;;;;;;;9.80;2.30;;;14.70;99.90;;;;;;4992733;28;20242;-36
2023/01/02 12:27:32;;;;;;;6.17;1.67;;;14.90;99.90;;;;;;5010609;28;20187;-37
2023/01/02 12:30:10;;;;;;;6.20;2.23;;;14.90;99.90;;;;;;4977605;28;20224;-37
2023/01/02 12:32:47;;;;;;;5.57;2.17;;;14.80;99.90;;;;;;5010501;28;20238;-37
2023/01/02 12:35:35;;;;;;;7.07;2.60;;;14.80;99.90;;;;;;4993975;28;20183;-36
2023/01/02 12:38:07;;;;;;;6.07;2.17;;;14.80;99.90;;;;;;4993789;28;20194;-37
2023/01/02 12:40:51;;;;;;;8.43;2.63;;;14.80;99.90;;;;;;5010392;28;20262;-37
2023/01/02 12:43:20;;;;;;;10.47;2.57;;;14.80;99.90;;;;;;4992991;28;20215;-38
2023/01/02 12:45:57;;;;;;;7.87;1.90;;;14.70;99.90;;;;;;5010929;28;20175;-36
2023/01/02 12:48:39;;;;;;;7.60;2.33;;;14.70;99.90;;;;;;4977359;28;20179;-37
2023/01/02 12:51:14;;;;;;;6.23;2.23;;;14.70;99.90;;;;;;5014373;28;20178;-38
2023/01/02 12:53:42;;;;;;;7.57;2.30;;;14.60;99.90;;;;;;4998327;28;20272;-39
2023/01/02 12:56:17;;;;;;;8.13;2.20;;;14.60;99.90;;;;;;4996240;28;20183;-37
2023/01/02 12:58:55;;;;;;;5.20;2.20;;;14.50;99.90;;;;;;4996271;28;20182;-39
2023/01/02 13:01:24;;;;;;;7.13;2.20;;;14.50;99.90;;;;;;5013679;28;20194;-38
2023/01/02 13:04:17;;;;;;;7.93;2.50;;;14.50;99.90;;;;;;4996052;28;20262;-36
2023/01/02 13:06:51;;;;;;;6.70;2.67;;;14.40;99.90;;;;;;4995910;28;20664;-36
2023/01/02 13:09:39;;;;;;;8.03;2.80;;;14.40;99.90;;;;;;4995514;28;20279;-37
2023/01/02 13:12:09;;;;;;;10.80;2.87;;;14.50;99.90;;;;;;4996052;28;20231;-37
2023/01/02 13:14:49;;;;;;;10.63;2.23;;;14.60;99.90;;;;;;4995809;28;20202;-37
2023/01/02 13:17:19;;;;;;;12.10;2.33;;;14.70;99.90;;;;;;4995864;28;20433;-37
2023/01/02 13:20:00;;;;;;;8.23;2.00;;;14.70;99.90;;;;;;4979384;28;20455;-37